Time;durP1;ratioP1;P1;durP2;ratioP2;P2;SDS_P1;SDS_P2;PMS_P1;PMS_P2;Temp;Humidity;BMP_temperature;BMP_pressure;BME280_temperature;BME280_humidity;BME280_pressure;Samples;Min_cycle;Max_cycle;Signal;HPM_P1;HPM_P2
2023/08/20 00:01:39;;;;;;;0.13;0.13;;;23.90;99.90;;;;;;4987258;28;20547;-77
2023/08/20 00:04:04;;;;;;;;;;;23.90;99.90;;;;;;5003717;28;20083;-76
2023/08/20 00:06:30;;;;;;;0.20;0.10;;;23.80;99.90;;;;;;5005022;28;20366;-77
2023/08/20 00:08:56;;;;;;;;;;;23.70;99.90;;;;;;4987340;28;20029;-76
2023/08/20 00:11:22;;;;;;;0.00;0.00;;;23.80;99.90;;;;;;5002148;28;19932;-76
2023/08/20 00:13:49;;;;;;;0.00;0.00;;;23.70;99.90;;;;;;4999846;28;20586;-76
2023/08/20 00:16:15;;;;;;;2.17;0.40;;;23.70;99.90;;;;;;4999606;28;20501;-76
2023/08/20 00:18:41;;;;;;;;;;;23.70;99.90;;;;;;5002883;28;20385;-76
2023/08/20 00:21:08;;;;;;;0.00;0.00;;;23.60;99.90;;;;;;5007283;28;19909;-76
2023/08/20 00:23:37;;;;;;;0.00;0.00;;;23.30;99.90;;;;;;4986322;28;20378;-76
2023/08/20 00:26:03;;;;;;;0.00;0.00;;;23.10;99.90;;;;;;5003682;28;20030;-76
2023/08/20 00:28:29;;;;;;;0.20;0.13;;;23.10;99.90;;;;;;4986754;28;20033;-76
2023/08/20 00:30:55;;;;;;;0.20;0.05;;;23.10;99.90;;;;;;5003972;28;20038;-76
2023/08/20 00:33:20;;;;;;;0.00;0.00;;;23.10;99.90;;;;;;5003318;28;20034;-76
2023/08/20 00:35:46;;;;;;;0.28;0.28;;;23.10;99.90;;;;;;5002783;28;20157;-76
2023/08/20 00:38:12;;;;;;;;;;;23.10;99.90;;;;;;4964431;28;20030;-77
2023/08/20 00:40:37;;;;;;;0.10;0.10;;;23.10;99.90;;;;;;4999335;28;20624;-76
2023/08/20 00:43:03;;;;;;;;;;;23.10;99.90;;;;;;5004635;28;20034;-76
2023/08/20 00:45:28;;;;;;;0.20;0.00;;;23.20;99.90;;;;;;4987016;28;19916;-76
2023/08/20 00:47:54;;;;;;;0.08;0.08;;;23.10;99.90;;;;;;5002211;28;20029;-76
2023/08/20 00:50:20;;;;;;;0.05;0.05;;;23.10;99.90;;;;;;4986893;28;20117;-76
2023/08/20 00:52:48;;;;;;;0.35;0.35;;;23.10;99.90;;;;;;5001139;28;20060;-76
2023/08/20 00:55:13;;;;;;;0.10;0.10;;;23.10;99.90;;;;;;4986112;28;20081;-77
2023/08/20 00:57:40;;;;;;;0.00;0.00;;;23.00;99.90;;;;;;4999238;28;20042;-76
2023/08/20 01:00:10;;;;;;;0.00;0.00;;;23.00;99.90;;;;;;5006577;28;20251;-76
2023/08/20 01:02:37;;;;;;;0.00;0.00;;;23.00;99.90;;;;;;5004307;28;20101;-76
2023/08/20 01:05:05;;;;;;;1.45;0.17;;;22.90;99.90;;;;;;5001320;28;20105;-76
2023/08/20 01:07:56;;;;;;;0.00;0.00;;;22.90;99.90;;;;;;5001627;28;20046;-76
2023/08/20 01:10:21;;;;;;;0.00;0.00;;;22.90;99.90;;;;;;4983197;28;20041;-76
2023/08/20 01:12:48;;;;;;;0.00;0.00;;;22.90;99.90;;;;;;5003488;28;20037;-76
2023/08/20 01:15:14;;;;;;;0.00;0.00;;;22.90;99.90;;;;;;4985556;28;20032;-76
2023/08/20 01:17:40;;;;;;;0.00;0.00;;;22.90;99.90;;;;;;5005160;28;20105;-77
2023/08/20 01:20:08;;;;;;;0.00;0.00;;;22.90;99.90;;;;;;4984783;28;20038;-77
2023/08/20 01:22:57;;;;;;;0.52;0.13;;;22.90;99.90;;;;;;4986724;28;20037;-76
2023/08/20 01:26:04;;;;;;;1.40;0.13;;;22.90;99.90;;;;;;4983810;28;20045;-76
2023/08/20 01:28:31;;;;;;;0.00;0.00;;;22.90;99.90;;;;;;4982623;28;20023;-76
2023/08/20 01:30:59;;;;;;;0.38;0.20;;;22.80;99.90;;;;;;4997857;28;20556;-76
2023/08/20 01:33:25;;;;;;;0.00;0.00;;;22.90;99.90;;;;;;5004887;28;20026;-76
2023/08/20 01:35:55;;;;;;;0.15;0.15;;;22.80;99.90;;;;;;5004529;28;20056;-76
2023/08/20 01:38:21;;;;;;;0.32;0.30;;;22.80;99.90;;;;;;5003329;28;20030;-77
2023/08/20 01:40:48;;;;;;;0.00;0.00;;;22.70;99.90;;;;;;4999944;28;20029;-76
2023/08/20 01:43:13;;;;;;;0.10;0.05;;;22.60;99.90;;;;;;5002865;28;20560;-76
2023/08/20 01:45:39;;;;;;;0.00;0.00;;;22.60;99.90;;;;;;4994775;28;20108;-76
2023/08/20 01:48:05;;;;;;;;;;;22.60;99.90;;;;;;5003656;28;20061;-76
2023/08/20 01:50:31;;;;;;;0.00;0.00;;;22.60;99.90;;;;;;4985854;28;19913;-76
2023/08/20 01:52:57;;;;;;;0.30;0.30;;;22.60;99.90;;;;;;4986310;28;20030;-75
2023/08/20 01:55:23;;;;;;;0.10;0.10;;;22.60;99.90;;;;;;4987099;28;20079;-77
2023/08/20 01:57:48;;;;;;;;;;;22.60;99.90;;;;;;4982640;28;20030;-76
2023/08/20 02:00:14;;;;;;;0.00;0.00;;;22.50;99.90;;;;;;5004030;28;19909;-76
2023/08/20 02:02:40;;;;;;;0.00;0.00;;;22.50;99.90;;;;;;4999898;28;20033;-76
2023/08/20 02:05:06;;;;;;;;;;;22.50;99.90;;;;;;5003521;28;20218;-77
2023/08/20 02:07:31;;;;;;;0.20;0.20;;;22.50;99.90;;;;;;5003264;28;19945;-76
2023/08/20 02:09:57;;;;;;;0.00;0.00;;;22.50;99.90;;;;;;5007110;28;20036;-75
2023/08/20 02:12:23;;;;;;;0.10;0.10;;;22.50;99.90;;;;;;4994508;28;20049;-77
2023/08/20 02:14:49;;;;;;;;;;;22.50;99.90;;;;;;5000493;28;20029;-76
2023/08/20 02:17:16;;;;;;;0.00;0.00;;;22.40;99.90;;;;;;4988743;28;20387;-76
2023/08/20 02:19:42;;;;;;;0.17;0.17;;;22.50;99.90;;;;;;5003396;28;20872;-77
2023/08/20 02:22:08;;;;;;;0.38;0.22;;;22.40;99.90;;;;;;5000439;28;20068;-76
2023/08/20 02:24:34;;;;;;;0.00;0.00;;;22.50;99.90;;;;;;5002825;28;20064;-77
2023/08/20 02:26:59;;;;;;;0.00;0.00;;;22.40;99.90;;;;;;5002653;28;20026;-76
2023/08/20 02:29:25;;;;;;;0.00;0.00;;;22.40;99.90;;;;;;5002420;28;20497;-76
2023/08/20 02:31:50;;;;;;;0.00;0.00;;;22.40;99.90;;;;;;4999406;28;20543;-76
2023/08/20 02:34:16;;;;;;;0.40;0.20;;;22.40;99.90;;;;;;4985205;28;20030;-76
2023/08/20 02:36:42;;;;;;;0.00;0.00;;;22.50;99.90;;;;;;5000054;28;20130;-77
2023/08/20 02:39:07;;;;;;;0.00;0.00;;;22.40;99.90;;;;;;5003253;28;20030;-76
2023/08/20 02:41:34;;;;;;;;;;;22.40;99.90;;;;;;5002545;28;20075;-76
2023/08/20 02:44:00;;;;;;;0.00;0.00;;;22.30;99.90;;;;;;5001858;28;19909;-76
2023/08/20 02:46:25;;;;;;;0.25;0.25;;;22.20;99.90;;;;;;4970805;28;20622;-77
2023/08/20 02:48:51;;;;;;;;;;;22.20;99.90;;;;;;5002308;28;20041;-76
2023/08/20 02:51:17;;;;;;;0.00;0.00;;;22.20;99.90;;;;;;5002287;28;19946;-76
2023/08/20 02:53:43;;;;;;;0.10;0.10;;;22.20;99.90;;;;;;4984807;28;20191;-76
2023/08/20 02:56:09;;;;;;;0.00;0.00;;;22.30;99.90;;;;;;5002494;28;20104;-77
2023/08/20 02:58:34;;;;;;;;;;;22.30;99.90;;;;;;4999378;28;20033;-77
2023/08/20 03:01:00;;;;;;;0.00;0.00;;;22.30;99.90;;;;;;5000815;28;19916;-76
2023/08/20 03:03:25;;;;;;;;;;;22.30;99.90;;;;;;5002130;28;20596;-77
2023/08/20 03:05:52;;;;;;;0.20;0.13;;;22.30;99.90;;;;;;5001862;28;19909;-76
2023/08/20 03:08:18;;;;;;;0.00;0.00;;;22.30;99.90;;;;;;5000804;28;20069;-77
2023/08/20 03:10:43;;;;;;;0.10;0.00;;;22.30;99.90;;;;;;5003708;28;20073;-76
2023/08/20 03:13:09;;;;;;;0.05;0.05;;;22.40;99.90;;;;;;5001887;28;20038;-76
2023/08/20 03:15:34;;;;;;;;;;;22.40;99.90;;;;;;4999357;28;20018;-76
2023/08/20 03:18:00;;;;;;;0.10;0.10;;;22.50;99.90;;;;;;5001348;28;20403;-77
2023/08/20 03:20:28;;;;;;;0.00;0.00;;;22.60;99.90;;;;;;4998984;28;20692;-77
2023/08/20 03:22:53;;;;;;;0.05;0.03;;;22.70;99.90;;;;;;5003463;28;20032;-77
2023/08/20 03:25:19;;;;;;;0.00;0.00;;;22.70;99.90;;;;;;5003178;28;20026;-76
2023/08/20 03:27:45;;;;;;;0.05;0.05;;;22.70;99.90;;;;;;5005795;28;20030;-77
2023/08/20 03:30:11;;;;;;;0.00;0.00;;;22.80;99.90;;;;;;5005742;28;20022;-77
2023/08/20 03:32:36;;;;;;;;;;;22.70;99.90;;;;;;4987620;28;20026;-77
2023/08/20 03:35:02;;;;;;;0.38;0.17;;;22.70;99.90;;;;;;5002169;28;19913;-77
2023/08/20 03:37:28;;;;;;;0.13;0.10;;;22.70;99.90;;;;;;4987616;28;20408;-76
2023/08/20 03:39:54;;;;;;;0.00;0.00;;;22.70;99.90;;;;;;5005716;28;20049;-76
2023/08/20 03:42:19;;;;;;;0.43;0.20;;;22.30;99.90;;;;;;5004985;28;20030;-77
2023/08/20 03:44:45;;;;;;;0.40;0.15;;;22.10;99.90;;;;;;5005179;28;20037;-76
2023/08/20 03:47:11;;;;;;;0.15;0.15;;;22.00;99.90;;;;;;5003391;28;20029;-76
2023/08/20 03:49:37;;;;;;;0.10;0.10;;;22.00;99.90;;;;;;5004963;28;20022;-76
2023/08/20 03:52:03;;;;;;;0.00;0.00;;;22.00;99.90;;;;;;5001815;28;20429;-76
2023/08/20 03:54:29;;;;;;;0.17;0.17;;;22.10;99.90;;;;;;5004936;28;20026;-76
2023/08/20 03:56:55;;;;;;;0.13;0.13;;;22.10;99.90;;;;;;5002532;28;20050;-76
2023/08/20 03:59:21;;;;;;;0.17;0.17;;;22.10;99.90;;;;;;4987503;28;20145;-77
2023/08/20 04:01:47;;;;;;;0.90;0.10;;;22.20;99.90;;;;;;5002541;28;20030;-76
2023/08/20 04:04:12;;;;;;;;;;;22.20;99.90;;;;;;5004447;28;20104;-76
2023/08/20 04:06:38;;;;;;;0.15;0.15;;;22.20;99.90;;;;;;5004364;28;19906;-76
2023/08/20 04:09:06;;;;;;;0.00;0.00;;;22.30;99.90;;;;;;5002416;28;20041;-76
2023/08/20 04:11:32;;;;;;;0.10;0.10;;;22.30;99.90;;;;;;5004661;28;20228;-76
2023/08/20 04:13:58;;;;;;;1.98;0.65;;;22.30;99.90;;;;;;5004517;28;20105;-76
2023/08/20 04:16:24;;;;;;;0.32;0.22;;;22.30;99.90;;;;;;5001964;28;20105;-76
2023/08/20 04:18:50;;;;;;;0.00;0.00;;;22.30;99.90;;;;;;5004249;28;20594;-75
2023/08/20 04:21:16;;;;;;;0.20;0.20;;;22.20;99.90;;;;;;5007139;28;20025;-76
2023/08/20 04:23:42;;;;;;;0.20;0.20;;;22.30;99.90;;;;;;5004324;28;20148;-76
2023/08/20 04:26:08;;;;;;;0.22;0.22;;;22.30;99.90;;;;;;5004638;28;20079;-76
2023/08/20 04:28:33;;;;;;;0.00;0.00;;;22.40;99.90;;;;;;5004662;28;20404;-76
2023/08/20 04:31:00;;;;;;;0.00;0.00;;;22.40;99.90;;;;;;5002309;28;20037;-76
2023/08/20 04:33:26;;;;;;;0.00;0.00;;;22.40;99.90;;;;;;5004058;28;20123;-76
2023/08/20 04:35:52;;;;;;;0.47;0.28;;;22.50;99.90;;;;;;4985513;28;20030;-76
2023/08/20 04:38:18;;;;;;;2.45;0.20;;;22.60;99.90;;;;;;4984601;28;20374;-76
2023/08/20 04:40:48;;;;;;;0.00;0.00;;;22.80;99.90;;;;;;4984702;28;20030;-76
2023/08/20 04:43:14;;;;;;;0.52;0.43;;;23.00;99.90;;;;;;4999642;28;20526;-76
2023/08/20 04:45:40;;;;;;;0.65;0.65;;;23.20;99.90;;;;;;4986974;28;20062;-77
2023/08/20 04:48:06;;;;;;;0.10;0.10;;;23.40;99.90;;;;;;5004551;28;20617;-77
2023/08/20 04:50:31;;;;;;;;;;;23.70;99.90;;;;;;4986874;28;20029;-79
2023/08/20 04:52:59;;;;;;;0.30;0.30;;;24.10;99.90;;;;;;5003603;28;19913;-78
2023/08/20 04:55:26;;;;;;;0.25;0.25;;;24.60;99.90;;;;;;5000735;28;20030;-76
2023/08/20 04:57:51;;;;;;;0.10;0.10;;;25.10;99.90;;;;;;5003882;28;20025;-77
2023/08/20 05:00:17;;;;;;;0.10;0.10;;;25.00;99.90;;;;;;5003330;28;20034;-75
2023/08/20 05:02:43;;;;;;;0.40;0.40;;;24.90;99.90;;;;;;4985061;28;20026;-74
2023/08/20 05:05:09;;;;;;;0.45;0.30;;;24.70;99.90;;;;;;4982022;28;20022;-74
2023/08/20 05:07:34;;;;;;;0.52;0.30;;;24.90;99.90;;;;;;5004337;28;20026;-75
2023/08/20 05:10:00;;;;;;;0.00;0.00;;;25.00;99.90;;;;;;5003001;28;20034;-76
2023/08/20 05:12:26;;;;;;;0.45;0.30;;;24.90;99.90;;;;;;5004153;28;20460;-77
2023/08/20 05:14:52;;;;;;;0.10;0.10;;;24.80;99.90;;;;;;5004388;28;20477;-78
2023/08/20 05:17:18;;;;;;;0.10;0.10;;;24.70;99.90;;;;;;4985746;28;20117;-77
2023/08/20 05:19:43;;;;;;;;;;;24.80;99.90;;;;;;5003660;28;20038;-77
2023/08/20 05:22:10;;;;;;;0.10;0.10;;;24.90;99.90;;;;;;5004207;28;19909;-77
2023/08/20 05:24:36;;;;;;;0.00;0.00;;;24.90;99.90;;;;;;5000687;28;20052;-77
2023/08/20 05:27:14;;;;;;;;;;;24.90;99.90;;;;;;5003888;28;20025;-77
2023/08/20 05:29:40;;;;;;;0.45;0.30;;;25.20;99.90;;;;;;4985429;28;19909;-77
2023/08/20 05:32:06;;;;;;;;;;;25.50;99.90;;;;;;5000703;28;20041;-77
2023/08/20 05:34:32;;;;;;;0.00;0.00;;;25.60;99.90;;;;;;5002775;28;20016;-77
2023/08/20 05:37:00;;;;;;;0.00;0.00;;;25.80;99.90;;;;;;4985714;28;20057;-77
2023/08/20 05:39:26;;;;;;;0.40;0.32;;;25.70;99.90;;;;;;5003637;28;20504;-77
2023/08/20 05:41:55;;;;;;;;;;;26.10;99.90;;;;;;4982833;28;20018;-77
2023/08/20 05:44:21;;;;;;;0.52;0.30;;;26.20;99.90;;;;;;4984463;28;20276;-77
2023/08/20 05:46:47;;;;;;;;;;;26.20;99.90;;;;;;4982859;28;20026;-76
2023/08/20 05:49:15;;;;;;;0.00;0.00;;;26.80;99.90;;;;;;5002784;28;19906;-78
2023/08/20 05:51:42;;;;;;;0.22;0.22;;;27.50;99.90;;;;;;5001750;28;20018;-77
2023/08/20 05:54:08;;;;;;;0.00;0.00;;;28.10;99.90;;;;;;5002926;28;20057;-78
2023/08/20 05:56:34;;;;;;;0.10;0.10;;;28.30;99.90;;;;;;4983038;28;20057;-79
2023/08/20 05:58:59;;;;;;;0.00;0.00;;;28.40;99.90;;;;;;5004507;28;20042;-78
2023/08/20 06:01:25;;;;;;;0.10;0.10;;;29.00;99.90;;;;;;4987156;28;20022;-77
2023/08/20 06:03:50;;;;;;;0.32;0.32;;;29.00;99.90;;;;;;5003781;28;20401;-80
2023/08/20 06:06:16;;;;;;;0.00;0.00;;;29.20;99.90;;;;;;5003695;28;20033;-77
2023/08/20 06:08:42;;;;;;;0.20;0.20;;;28.70;99.90;;;;;;5001342;28;20022;-78
2023/08/20 06:11:07;;;;;;;0.10;0.10;;;28.90;99.90;;;;;;5003904;28;20118;-78
2023/08/20 06:13:33;;;;;;;0.00;0.00;;;29.50;99.90;;;;;;5000915;28;20068;-78
2023/08/20 06:15:59;;;;;;;0.60;0.60;;;29.70;99.90;;;;;;5003728;28;20432;-78
2023/08/20 06:18:24;;;;;;;0.20;0.20;;;29.50;99.90;;;;;;5003890;28;20029;-77
2023/08/20 06:20:50;;;;;;;0.32;0.28;;;30.30;99.90;;;;;;5003724;28;20030;-77
2023/08/20 06:23:15;;;;;;;0.00;0.00;;;30.70;99.90;;;;;;4986494;28;20026;-78
2023/08/20 06:25:41;;;;;;;0.15;0.15;;;31.40;99.90;;;;;;4983276;28;20049;-78
2023/08/20 06:28:09;;;;;;;0.20;0.20;;;31.80;99.90;;;;;;5003664;28;20018;-78
2023/08/20 06:30:35;;;;;;;0.15;0.00;;;32.20;99.50;;;;;;5003731;28;20022;-79
2023/08/20 06:33:00;;;;;;;0.22;0.22;;;31.70;99.10;;;;;;4986452;28;20167;-78
2023/08/20 06:35:26;;;;;;;0.20;0.20;;;32.00;99.20;;;;;;4985938;28;20026;-79
2023/08/20 06:37:52;;;;;;;0.13;0.13;;;32.30;98.50;;;;;;4985941;28;20048;-78
2023/08/20 06:40:17;;;;;;;0.20;0.20;;;32.60;98.30;;;;;;5003635;28;20033;-78
2023/08/20 06:42:43;;;;;;;0.13;0.13;;;32.70;97.20;;;;;;5003591;28;20073;-78
2023/08/20 06:45:09;;;;;;;0.00;0.00;;;32.80;97.00;;;;;;4999408;28;20092;-79
2023/08/20 06:47:35;;;;;;;0.43;0.20;;;33.50;97.00;;;;;;5001386;28;20026;-78
2023/08/20 06:50:01;;;;;;;0.05;0.05;;;34.30;95.00;;;;;;5003613;28;20026;-78
2023/08/20 06:52:26;;;;;;;0.40;0.40;;;34.20;94.60;;;;;;5004161;28;20026;-78
2023/08/20 06:54:52;;;;;;;0.10;0.10;;;33.80;94.40;;;;;;5004053;28;20041;-77
2023/08/20 06:57:19;;;;;;;0.55;0.30;;;33.50;95.20;;;;;;5002125;28;20056;-77
2023/08/20 06:59:44;;;;;;;0.52;0.52;;;34.30;94.30;;;;;;4990346;28;20029;-78
2023/08/20 07:02:11;;;;;;;0.43;0.43;;;34.40;93.80;;;;;;5007819;28;20014;-78
2023/08/20 07:04:36;;;;;;;0.20;0.20;;;34.00;93.80;;;;;;5007397;28;20040;-78
2023/08/20 07:07:04;;;;;;;0.17;0.17;;;33.60;93.90;;;;;;4987343;28;20026;-77
2023/08/20 07:09:30;;;;;;;0.35;0.35;;;34.20;93.90;;;;;;4988354;28;20092;-79
2023/08/20 07:11:56;;;;;;;0.00;0.00;;;35.00;92.70;;;;;;4989211;28;20029;-78
2023/08/20 07:14:22;;;;;;;0.20;0.20;;;34.90;92.60;;;;;;4989693;28;20041;-79
2023/08/20 07:16:48;;;;;;;0.13;0.13;;;35.20;92.20;;;;;;4989901;28;20050;-78
2023/08/20 07:19:14;;;;;;;0.00;0.00;;;36.50;91.10;;;;;;4987252;28;20072;-78
2023/08/20 07:21:40;;;;;;;0.65;0.45;;;36.50;90.10;;;;;;4989470;28;20021;-78
2023/08/20 07:24:06;;;;;;;1.10;0.10;;;37.00;89.70;;;;;;4986845;28;20621;-78
2023/08/20 07:26:31;;;;;;;0.10;0.10;;;37.60;88.30;;;;;;5006972;28;20034;-79
2023/08/20 07:28:57;;;;;;;0.17;0.17;;;39.00;84.70;;;;;;4989449;28;20041;-79
2023/08/20 07:31:24;;;;;;;0.57;0.28;;;39.10;81.70;;;;;;5004210;28;20149;-80
2023/08/20 07:33:51;;;;;;;0.10;0.10;;;39.50;80.10;;;;;;5006337;28;20030;-79
2023/08/20 07:36:17;;;;;;;3.30;0.22;;;39.10;78.80;;;;;;4985377;28;20052;-79
2023/08/20 07:38:43;;;;;;;0.68;0.38;;;39.40;78.10;;;;;;4987639;28;20033;-79
2023/08/20 07:41:10;;;;;;;0.10;0.10;;;38.60;78.80;;;;;;4984162;28;20029;-79
2023/08/20 07:43:38;;;;;;;0.30;0.30;;;38.10;78.10;;;;;;5003369;28;20102;-78
2023/08/20 07:46:04;;;;;;;0.00;0.00;;;36.70;79.90;;;;;;4984850;28;20033;-78
2023/08/20 07:48:30;;;;;;;0.90;0.30;;;37.60;80.10;;;;;;4988264;28;20550;-78
2023/08/20 07:50:56;;;;;;;0.13;0.13;;;37.40;78.90;;;;;;4989186;28;20033;-78
2023/08/20 07:53:22;;;;;;;0.20;0.20;;;37.90;79.40;;;;;;5002553;28;20382;-78
2023/08/20 07:55:47;;;;;;;0.10;0.10;;;39.60;77.20;;;;;;5006738;28;20026;-78
2023/08/20 07:58:14;;;;;;;0.55;0.13;;;40.20;76.20;;;;;;4987189;28;20079;-78
2023/08/20 08:00:40;;;;;;;0.30;0.30;;;41.10;74.30;;;;;;4988769;28;20508;-77
2023/08/20 08:03:05;;;;;;;0.30;0.30;;;39.30;75.70;;;;;;5004619;28;20109;-78
2023/08/20 08:05:32;;;;;;;0.32;0.32;;;38.60;75.90;;;;;;5004459;28;20504;-79
2023/08/20 08:07:58;;;;;;;0.32;0.32;;;37.90;75.60;;;;;;5004272;28;20036;-79
2023/08/20 08:10:23;;;;;;;0.00;0.00;;;38.70;75.50;;;;;;5003325;28;20038;-79
2023/08/20 08:12:49;;;;;;;0.00;0.00;;;38.20;76.30;;;;;;5004948;28;20034;-79
2023/08/20 08:15:15;;;;;;;0.00;0.00;;;37.50;77.20;;;;;;4988174;28;20369;-79
2023/08/20 08:17:40;;;;;;;0.10;0.10;;;38.00;76.90;;;;;;4983562;28;20040;-79
2023/08/20 08:20:06;;;;;;;0.00;0.00;;;38.40;77.20;;;;;;5004650;28;20073;-79
2023/08/20 08:22:32;;;;;;;0.30;0.30;;;39.00;76.90;;;;;;5006133;28;20022;-79
2023/08/20 08:24:58;;;;;;;0.50;0.50;;;39.10;75.80;;;;;;5006171;28;20373;-80
2023/08/20 08:27:23;;;;;;;0.50;0.43;;;39.20;75.30;;;;;;5002610;28;20047;-79
2023/08/20 08:29:50;;;;;;;0.10;0.00;;;39.90;75.00;;;;;;5004585;28;20037;-80
2023/08/20 08:32:16;;;;;;;0.17;0.13;;;40.50;73.70;;;;;;5004030;28;20261;-80
2023/08/20 08:34:42;;;;;;;0.20;0.20;;;42.00;71.70;;;;;;5001621;28;20112;-81
2023/08/20 08:37:08;;;;;;;0.28;0.28;;;42.70;69.00;;;;;;4981963;28;20113;-80
2023/08/20 08:39:34;;;;;;;0.20;0.20;;;39.90;71.50;;;;;;5002312;28;20544;-80
2023/08/20 08:42:04;;;;;;;0.20;0.10;;;40.00;71.50;;;;;;4990519;28;20064;-79
2023/08/20 08:44:34;;;;;;;0.30;0.28;;;41.00;71.20;;;;;;4986779;28;20045;-80
2023/08/20 08:47:04;;;;;;;0.22;0.22;;;41.40;70.00;;;;;;5018722;28;20366;-79
2023/08/20 08:49:36;;;;;;;0.25;0.25;;;40.20;70.30;;;;;;5004137;28;20030;-80
2023/08/20 08:52:04;;;;;;;0.08;0.08;;;40.30;70.80;;;;;;4988911;28;20366;-77
2023/08/20 08:54:32;;;;;;;0.17;0.17;;;43.20;69.00;;;;;;5006893;28;20496;-80
2023/08/20 08:56:58;;;;;;;0.25;0.25;;;43.70;65.30;;;;;;4987453;28;20033;-79
2023/08/20 08:59:23;;;;;;;0.30;0.30;;;43.50;65.40;;;;;;5000279;28;20026;-79
2023/08/20 09:01:49;;;;;;;0.17;0.10;;;43.30;65.20;;;;;;4987922;28;20022;-80
2023/08/20 09:04:15;;;;;;;0.43;0.13;;;43.40;64.80;;;;;;5001038;28;20022;-79
2023/08/20 09:06:48;;;;;;;0.20;0.20;;;42.20;65.60;;;;;;5003658;28;20101;-79
2023/08/20 09:09:14;;;;;;;0.10;0.00;;;41.40;66.90;;;;;;4985565;28;20084;-79
2023/08/20 09:11:40;;;;;;;0.08;0.08;;;41.90;66.10;;;;;;4984894;28;20045;-79
2023/08/20 09:14:06;;;;;;;0.15;0.15;;;41.50;63.50;;;;;;4987276;28;20533;-78
2023/08/20 09:16:32;;;;;;;0.00;0.00;;;40.00;65.20;;;;;;5003542;28;20088;-79
2023/08/20 09:19:01;;;;;;;0.20;0.20;;;41.30;65.50;;;;;;4986047;28;20053;-78
2023/08/20 09:21:30;;;;;;;0.10;0.10;;;43.20;63.20;;;;;;5004705;28;20076;-78
2023/08/20 09:24:02;;;;;;;0.25;0.25;;;44.50;59.90;;;;;;5000155;28;20456;-78
2023/08/20 09:26:27;;;;;;;0.10;0.10;;;45.20;58.70;;;;;;5003474;28;20037;-79
2023/08/20 09:28:58;;;;;;;0.28;0.28;;;44.40;58.70;;;;;;5000107;28;20366;-79
2023/08/20 09:31:38;;;;;;;0.00;0.00;;;43.40;58.70;;;;;;4987186;28;20037;-78
2023/08/20 09:34:04;;;;;;;0.08;0.08;;;43.80;59.30;;;;;;5004283;28;20060;-78
2023/08/20 09:36:32;;;;;;;0.20;0.20;;;44.40;58.30;;;;;;4981359;28;20054;-78
2023/08/20 09:38:57;;;;;;;0.00;0.00;;;42.10;59.00;;;;;;4976876;28;20591;-78
2023/08/20 09:41:23;;;;;;;1.98;0.52;;;40.60;59.70;;;;;;5004367;28;20021;-79
2023/08/20 09:43:55;;;;;;;0.20;0.20;;;40.80;59.50;;;;;;5000802;28;20109;-78
2023/08/20 09:46:25;;;;;;;1.08;0.30;;;42.10;59.50;;;;;;5003885;28;20037;-78
2023/08/20 09:48:52;;;;;;;0.20;0.20;;;43.80;58.40;;;;;;5004186;28;20026;-78
2023/08/20 09:51:22;;;;;;;0.52;0.10;;;44.90;57.60;;;;;;5000560;28;20500;-78
2023/08/20 09:54:02;;;;;;;0.20;0.15;;;44.50;57.60;;;;;;5003386;28;20362;-78
2023/08/20 09:56:31;;;;;;;0.22;0.22;;;44.90;57.20;;;;;;5019003;28;20049;-78
2023/08/20 09:59:00;;;;;;;0.25;0.25;;;45.50;56.40;;;;;;5003973;28;20377;-78
2023/08/20 10:01:27;;;;;;;0.00;0.00;;;44.10;57.80;;;;;;5001110;28;20030;-77
2023/08/20 10:03:54;;;;;;;0.05;0.05;;;42.50;58.00;;;;;;5003411;28;20026;-77
2023/08/20 10:06:20;;;;;;;0.60;0.17;;;41.00;59.20;;;;;;5004107;28;20026;-78
2023/08/20 10:08:49;;;;;;;0.20;0.10;;;40.60;60.60;;;;;;4986639;28;20084;-78
2023/08/20 10:11:15;;;;;;;0.08;0.08;;;41.30;60.50;;;;;;4999136;28;20038;-78
2023/08/20 10:13:41;;;;;;;0.20;0.20;;;43.30;59.60;;;;;;5003074;28;20117;-78
2023/08/20 10:16:07;;;;;;;0.05;0.05;;;44.20;56.70;;;;;;5003655;28;20033;-77
2023/08/20 10:18:34;;;;;;;0.20;0.20;;;43.40;58.50;;;;;;4985924;28;20071;-78
2023/08/20 10:21:01;;;;;;;0.20;0.20;;;45.20;56.40;;;;;;5003935;28;20461;-78
2023/08/20 10:23:27;;;;;;;0.20;0.20;;;47.20;55.10;;;;;;5003634;28;20105;-79
2023/08/20 10:25:53;;;;;;;0.10;0.10;;;48.00;54.10;;;;;;4986227;28;20109;-78
2023/08/20 10:28:24;;;;;;;0.35;0.35;;;49.10;52.60;;;;;;5000257;28;20095;-78
2023/08/20 10:31:07;;;;;;;0.20;0.20;;;49.20;52.90;;;;;;4982579;28;20029;-77
2023/08/20 10:33:35;;;;;;;0.00;0.00;;;49.10;51.40;;;;;;4983613;28;20018;-78
2023/08/20 10:36:18;;;;;;;0.25;0.25;;;48.80;50.80;;;;;;5003362;28;20492;-77
2023/08/20 10:38:47;;;;;;;0.10;0.10;;;48.00;52.20;;;;;;5000228;28;20026;-78
2023/08/20 10:41:14;;;;;;;0.10;0.10;;;47.90;51.00;;;;;;5003337;28;20018;-77
2023/08/20 10:43:48;;;;;;;0.10;0.10;;;47.70;49.60;;;;;;4982362;28;20026;-78
2023/08/20 10:46:22;;;;;;;0.20;0.20;;;47.60;51.10;;;;;;5003645;28;20022;-77
2023/08/20 10:49:01;;;;;;;0.03;0.03;;;48.00;50.50;;;;;;5003289;28;20117;-78
2023/08/20 10:51:26;;;;;;;0.10;0.10;;;47.00;48.60;;;;;;5000858;28;20128;-79
2023/08/20 10:54:01;;;;;;;0.00;0.00;;;44.70;50.30;;;;;;5003193;28;20036;-79
2023/08/20 10:56:39;;;;;;;0.00;0.00;;;43.30;51.60;;;;;;4981020;28;20022;-79
2023/08/20 10:59:16;;;;;;;0.22;0.22;;;43.50;53.10;;;;;;4985541;28;20388;-78
2023/08/20 11:01:46;;;;;;;0.10;0.10;;;44.90;52.40;;;;;;4999888;28;20068;-79
2023/08/20 11:04:13;;;;;;;0.00;0.00;;;45.20;52.20;;;;;;5003113;28;20050;-78
2023/08/20 11:06:40;;;;;;;0.10;0.10;;;43.20;51.80;;;;;;4985445;28;20049;-78
2023/08/20 11:09:05;;;;;;;0.25;0.25;;;41.60;53.40;;;;;;5006191;28;20033;-79
2023/08/20 11:11:32;;;;;;;0.10;0.10;;;40.60;54.60;;;;;;4984961;28;20049;-78
2023/08/20 11:14:05;;;;;;;0.70;0.20;;;39.80;54.60;;;;;;5001518;28;20029;-78
2023/08/20 11:16:31;;;;;;;0.00;0.00;;;39.10;56.40;;;;;;5002826;28;20022;-77
2023/08/20 11:18:57;;;;;;;0.30;0.20;;;38.70;57.30;;;;;;4999339;28;20040;-77
2023/08/20 11:21:23;;;;;;;0.90;0.13;;;38.00;57.20;;;;;;5002727;28;20023;-78
2023/08/20 11:23:49;;;;;;;0.17;0.17;;;37.30;57.90;;;;;;4981857;28;20125;-77
2023/08/20 11:26:14;;;;;;;0.30;0.20;;;37.10;57.70;;;;;;5002801;28;20026;-78
2023/08/20 11:28:46;;;;;;;0.30;0.30;;;37.20;57.80;;;;;;5002269;28;20068;-76
2023/08/20 11:31:12;;;;;;;0.40;0.22;;;37.10;59.10;;;;;;4995849;28;20022;-78
2023/08/20 11:33:38;;;;;;;0.20;0.20;;;37.00;57.80;;;;;;5001683;28;20493;-78
2023/08/20 11:36:05;;;;;;;0.03;0.03;;;37.00;58.70;;;;;;4999101;28;20026;-76
2023/08/20 11:38:31;;;;;;;0.00;0.00;;;37.00;58.40;;;;;;5000075;28;20419;-74
2023/08/20 11:40:59;;;;;;;0.03;0.03;;;36.90;57.90;;;;;;5001604;28;20025;-73
2023/08/20 11:43:27;;;;;;;0.00;0.00;;;36.70;57.80;;;;;;4995491;28;20065;-73
2023/08/20 11:45:54;;;;;;;0.13;0.13;;;36.60;57.80;;;;;;4981411;28;20038;-75
2023/08/20 11:48:24;;;;;;;0.00;0.00;;;36.30;58.30;;;;;;4975899;28;20068;-74
2023/08/20 11:50:50;;;;;;;0.20;0.20;;;36.20;59.40;;;;;;4983199;28;20513;-73
2023/08/20 11:53:23;;;;;;;0.00;0.00;;;35.90;59.10;;;;;;4991591;28;20022;-73
2023/08/20 11:55:48;;;;;;;0.00;0.00;;;36.10;59.70;;;;;;4979570;28;20137;-74
2023/08/20 11:58:14;;;;;;;0.17;0.17;;;36.10;59.80;;;;;;4996924;28;20121;-74
2023/08/20 12:00:41;;;;;;;0.65;0.08;;;35.80;60.10;;;;;;4998735;28;20183;-74
2023/08/20 12:03:09;;;;;;;0.00;0.00;;;35.50;60.70;;;;;;4984401;28;20416;-74
2023/08/20 12:05:34;;;;;;;0.00;0.00;;;35.70;60.80;;;;;;4983524;28;20037;-74
2023/08/20 12:08:02;;;;;;;2.38;0.50;;;35.60;61.00;;;;;;4982716;28;20026;-74
2023/08/20 12:10:30;;;;;;;0.30;0.30;;;35.20;61.00;;;;;;5002591;28;20539;-75
2023/08/20 12:12:56;;;;;;;0.00;0.00;;;35.10;61.70;;;;;;5000573;28;20022;-74
2023/08/20 12:15:23;;;;;;;0.45;0.25;;;35.40;61.30;;;;;;5000611;28;20030;-75
2023/08/20 12:18:04;;;;;;;0.00;0.00;;;35.60;61.20;;;;;;4977249;28;20286;-75
2023/08/20 12:20:31;;;;;;;0.10;0.10;;;35.80;60.80;;;;;;4996926;28;20014;-73
2023/08/20 12:23:02;;;;;;;0.10;0.10;;;35.90;60.00;;;;;;4997374;28;20056;-74
2023/08/20 12:25:34;;;;;;;0.00;0.00;;;35.50;61.00;;;;;;5001049;28;20053;-73
2023/08/20 12:28:01;;;;;;;0.00;0.00;;;35.50;60.90;;;;;;4982920;28;20546;-74
2023/08/20 12:30:26;;;;;;;0.15;0.15;;;35.60;61.00;;;;;;4983830;28;20033;-74
2023/08/20 12:32:52;;;;;;;0.00;0.00;;;35.70;60.70;;;;;;4977052;28;20040;-74
2023/08/20 12:35:18;;;;;;;0.10;0.10;;;35.70;60.20;;;;;;5000266;28;20568;-74
2023/08/20 12:37:43;;;;;;;0.20;0.20;;;35.70;60.40;;;;;;5002619;28;20097;-74
2023/08/20 12:40:11;;;;;;;0.00;0.00;;;35.70;59.70;;;;;;4996407;28;20113;-74
2023/08/20 12:42:38;;;;;;;0.45;0.45;;;35.20;59.90;;;;;;4984213;28;20393;-75
2023/08/20 12:45:07;;;;;;;0.00;0.00;;;35.00;60.00;;;;;;4983030;28;20438;-73
2023/08/20 12:47:33;;;;;;;0.25;0.10;;;35.00;60.10;;;;;;4997547;28;20029;-74
2023/08/20 12:49:59;;;;;;;0.00;0.00;;;35.20;60.50;;;;;;4974870;28;20054;-75
2023/08/20 12:52:26;;;;;;;0.10;0.10;;;35.40;61.40;;;;;;4980461;28;20062;-74